sensor_id;sensor_type;location;lat;lon;timestamp;temperature;humidity
10171;DHT22;5127;50.922;6.988;2022-12-07T00:00:50;8.60;74.20
10171;DHT22;5127;50.922;6.988;2022-12-07T00:03:18;8.60;74.30
10171;DHT22;5127;50.922;6.988;2022-12-07T00:05:45;8.60;74.30
10171;DHT22;5127;50.922;6.988;2022-12-07T00:08:12;8.60;74.40
10171;DHT22;5127;50.922;6.988;2022-12-07T00:10:40;8.60;74.50
10171;DHT22;5127;50.922;6.988;2022-12-07T00:13:08;8.60;74.50
10171;DHT22;5127;50.922;6.988;2022-12-07T00:15:35;8.60;74.50
10171;DHT22;5127;50.922;6.988;2022-12-07T00:18:03;8.60;74.50
10171;DHT22;5127;50.922;6.988;2022-12-07T00:20:30;8.60;74.50
10171;DHT22;5127;50.922;6.988;2022-12-07T00:22:57;8.60;74.50
10171;DHT22;5127;50.922;6.988;2022-12-07T00:25:25;8.60;74.60
10171;DHT22;5127;50.922;6.988;2022-12-07T00:27:52;8.60;74.50
10171;DHT22;5127;50.922;6.988;2022-12-07T00:30:23;8.60;74.50
10171;DHT22;5127;50.922;6.988;2022-12-07T00:32:50;8.60;74.30
10171;DHT22;5127;50.922;6.988;2022-12-07T00:35:17;8.60;74.20
10171;DHT22;5127;50.922;6.988;2022-12-07T00:37:45;8.60;74.10
10171;DHT22;5127;50.922;6.988;2022-12-07T00:40:12;8.60;73.90
10171;DHT22;5127;50.922;6.988;2022-12-07T00:42:39;8.50;73.70
10171;DHT22;5127;50.922;6.988;2022-12-07T00:45:08;8.60;73.90
10171;DHT22;5127;50.922;6.988;2022-12-07T00:47:36;8.50;73.80
10171;DHT22;5127;50.922;6.988;2022-12-07T00:50:05;8.50;73.90
10171;DHT22;5127;50.922;6.988;2022-12-07T00:52:32;8.50;74.10
10171;DHT22;5127;50.922;6.988;2022-12-07T00:54:59;8.50;74.20
10171;DHT22;5127;50.922;6.988;2022-12-07T00:57:26;8.50;74.30
10171;DHT22;5127;50.922;6.988;2022-12-07T00:59:54;8.40;74.30
10171;DHT22;5127;50.922;6.988;2022-12-07T01:02:23;8.50;74.50
10171;DHT22;5127;50.922;6.988;2022-12-07T01:04:52;8.50;74.50
10171;DHT22;5127;50.922;6.988;2022-12-07T01:07:19;8.50;74.50
10171;DHT22;5127;50.922;6.988;2022-12-07T01:09:46;8.50;74.50
10171;DHT22;5127;50.922;6.988;2022-12-07T01:12:14;8.50;74.50
10171;DHT22;5127;50.922;6.988;2022-12-07T01:14:41;8.50;74.50
10171;DHT22;5127;50.922;6.988;2022-12-07T01:17:08;8.50;74.60
10171;DHT22;5127;50.922;6.988;2022-12-07T01:19:36;8.60;74.70
10171;DHT22;5127;50.922;6.988;2022-12-07T01:22:04;8.60;74.80
10171;DHT22;5127;50.922;6.988;2022-12-07T01:24:31;8.60;74.70
10171;DHT22;5127;50.922;6.988;2022-12-07T01:26:59;8.60;74.70
10171;DHT22;5127;50.922;6.988;2022-12-07T01:29:26;8.60;74.80
10171;DHT22;5127;50.922;6.988;2022-12-07T01:31:53;8.60;74.80
10171;DHT22;5127;50.922;6.988;2022-12-07T01:34:20;8.60;74.80
10171;DHT22;5127;50.922;6.988;2022-12-07T01:36:48;8.60;74.80
10171;DHT22;5127;50.922;6.988;2022-12-07T01:39:16;8.60;74.80
10171;DHT22;5127;50.922;6.988;2022-12-07T01:41:43;8.60;74.70
10171;DHT22;5127;50.922;6.988;2022-12-07T01:44:15;8.60;74.80
10171;DHT22;5127;50.922;6.988;2022-12-07T01:46:44;8.70;74.70
10171;DHT22;5127;50.922;6.988;2022-12-07T01:49:16;8.60;74.60
10171;DHT22;5127;50.922;6.988;2022-12-07T01:51:45;8.70;74.60
10171;DHT22;5127;50.922;6.988;2022-12-07T01:54:16;8.60;74.70
10171;DHT22;5127;50.922;6.988;2022-12-07T01:56:48;8.70;74.70
10171;DHT22;5127;50.922;6.988;2022-12-07T01:59:18;8.70;74.60
10171;DHT22;5127;50.922;6.988;2022-12-07T02:01:47;8.70;74.70
10171;DHT22;5127;50.922;6.988;2022-12-07T02:04:14;8.70;74.70
10171;DHT22;5127;50.922;6.988;2022-12-07T02:06:43;8.70;74.80
10171;DHT22;5127;50.922;6.988;2022-12-07T02:09:11;8.70;74.70
10171;DHT22;5127;50.922;6.988;2022-12-07T02:11:41;8.70;74.70
10171;DHT22;5127;50.922;6.988;2022-12-07T02:14:08;8.70;74.60
10171;DHT22;5127;50.922;6.988;2022-12-07T02:16:42;8.80;74.80
10171;DHT22;5127;50.922;6.988;2022-12-07T02:19:33;8.80;74.70
10171;DHT22;5127;50.922;6.988;2022-12-07T02:22:16;8.80;74.30
10171;DHT22;5127;50.922;6.988;2022-12-07T02:24:53;8.80;74.50
10171;DHT22;5127;50.922;6.988;2022-12-07T02:27:36;8.80;74.40
10171;DHT22;5127;50.922;6.988;2022-12-07T02:30:06;8.90;74.40
10171;DHT22;5127;50.922;6.988;2022-12-07T02:32:42;8.80;74.50
10171;DHT22;5127;50.922;6.988;2022-12-07T02:35:14;8.90;74.40
10171;DHT22;5127;50.922;6.988;2022-12-07T02:37:51;8.80;74.50
10171;DHT22;5127;50.922;6.988;2022-12-07T02:40:24;8.80;74.30
10171;DHT22;5127;50.922;6.988;2022-12-07T02:42:57;8.80;74.40
10171;DHT22;5127;50.922;6.988;2022-12-07T02:45:27;8.80;74.40
10171;DHT22;5127;50.922;6.988;2022-12-07T02:47:58;8.80;74.40
10171;DHT22;5127;50.922;6.988;2022-12-07T02:50:26;8.80;74.50
10171;DHT22;5127;50.922;6.988;2022-12-07T02:52:53;8.80;74.50
10171;DHT22;5127;50.922;6.988;2022-12-07T02:55:25;8.80;74.50
10171;DHT22;5127;50.922;6.988;2022-12-07T02:58:14;8.80;74.20
10171;DHT22;5127;50.922;6.988;2022-12-07T03:00:54;8.80;74.20
10171;DHT22;5127;50.922;6.988;2022-12-07T03:03:23;8.80;73.80
10171;DHT22;5127;50.922;6.988;2022-12-07T03:06:08;8.80;74.20
10171;DHT22;5127;50.922;6.988;2022-12-07T03:08:46;8.80;73.80
10171;DHT22;5127;50.922;6.988;2022-12-07T03:11:18;8.80;74.10
10171;DHT22;5127;50.922;6.988;2022-12-07T03:13:50;8.70;74.30
10171;DHT22;5127;50.922;6.988;2022-12-07T03:16:25;8.70;75.00
10171;DHT22;5127;50.922;6.988;2022-12-07T03:18:56;8.70;74.30
10171;DHT22;5127;50.922;6.988;2022-12-07T03:21:26;8.70;74.30
10171;DHT22;5127;50.922;6.988;2022-12-07T03:23:58;8.70;74.40
10171;DHT22;5127;50.922;6.988;2022-12-07T03:26:32;8.70;74.20
10171;DHT22;5127;50.922;6.988;2022-12-07T03:29:06;8.80;74.30
10171;DHT22;5127;50.922;6.988;2022-12-07T03:31:40;8.70;74.30
10171;DHT22;5127;50.922;6.988;2022-12-07T03:34:11;8.70;74.30
10171;DHT22;5127;50.922;6.988;2022-12-07T03:36:44;8.70;74.40
10171;DHT22;5127;50.922;6.988;2022-12-07T03:39:20;8.70;74.40
10171;DHT22;5127;50.922;6.988;2022-12-07T03:41:49;8.70;74.30
10171;DHT22;5127;50.922;6.988;2022-12-07T03:44:16;8.70;74.50
10171;DHT22;5127;50.922;6.988;2022-12-07T03:46:50;8.70;74.60
10171;DHT22;5127;50.922;6.988;2022-12-07T03:49:24;8.70;74.30
10171;DHT22;5127;50.922;6.988;2022-12-07T03:51:57;8.70;74.40
10171;DHT22;5127;50.922;6.988;2022-12-07T03:54:30;8.70;74.40
10171;DHT22;5127;50.922;6.988;2022-12-07T03:56:59;8.70;74.40
10171;DHT22;5127;50.922;6.988;2022-12-07T03:59:28;8.70;74.50
10171;DHT22;5127;50.922;6.988;2022-12-07T04:02:07;8.70;74.40
10171;DHT22;5127;50.922;6.988;2022-12-07T04:04:34;8.70;74.10
10171;DHT22;5127;50.922;6.988;2022-12-07T04:07:02;8.60;74.40
10171;DHT22;5127;50.922;6.988;2022-12-07T04:09:29;8.60;74.40
10171;DHT22;5127;50.922;6.988;2022-12-07T04:11:56;8.60;74.50
10171;DHT22;5127;50.922;6.988;2022-12-07T04:14:24;8.70;74.50
10171;DHT22;5127;50.922;6.988;2022-12-07T04:16:53;8.70;74.50
10171;DHT22;5127;50.922;6.988;2022-12-07T04:19:25;8.60;74.40
10171;DHT22;5127;50.922;6.988;2022-12-07T04:21:53;8.70;74.50
10171;DHT22;5127;50.922;6.988;2022-12-07T04:24:21;8.60;74.50
10171;DHT22;5127;50.922;6.988;2022-12-07T04:26:48;8.60;74.50
10171;DHT22;5127;50.922;6.988;2022-12-07T04:29:16;8.70;74.60
10171;DHT22;5127;50.922;6.988;2022-12-07T04:31:44;8.70;74.60
10171;DHT22;5127;50.922;6.988;2022-12-07T04:34:12;8.70;74.50
10171;DHT22;5127;50.922;6.988;2022-12-07T04:36:41;8.70;74.50
10171;DHT22;5127;50.922;6.988;2022-12-07T04:39:17;8.70;75.10
10171;DHT22;5127;50.922;6.988;2022-12-07T04:41:45;8.70;74.30
10171;DHT22;5127;50.922;6.988;2022-12-07T04:44:13;8.70;74.50
10171;DHT22;5127;50.922;6.988;2022-12-07T04:46:41;8.70;74.40
10171;DHT22;5127;50.922;6.988;2022-12-07T04:49:09;8.70;74.40
10171;DHT22;5127;50.922;6.988;2022-12-07T04:51:37;8.70;74.30
10171;DHT22;5127;50.922;6.988;2022-12-07T04:54:05;8.70;74.30
10171;DHT22;5127;50.922;6.988;2022-12-07T04:56:33;8.70;74.30
10171;DHT22;5127;50.922;6.988;2022-12-07T04:59:02;8.70;74.30
10171;DHT22;5127;50.922;6.988;2022-12-07T05:01:30;8.70;74.30
10171;DHT22;5127;50.922;6.988;2022-12-07T05:03:58;8.70;74.30
10171;DHT22;5127;50.922;6.988;2022-12-07T05:06:25;8.70;74.40
10171;DHT22;5127;50.922;6.988;2022-12-07T05:08:52;8.70;74.30
10171;DHT22;5127;50.922;6.988;2022-12-07T05:11:21;8.70;74.30
10171;DHT22;5127;50.922;6.988;2022-12-07T05:14:10;8.70;74.30
10171;DHT22;5127;50.922;6.988;2022-12-07T05:16:38;8.60;74.20
10171;DHT22;5127;50.922;6.988;2022-12-07T05:19:06;8.70;74.40
10171;DHT22;5127;50.922;6.988;2022-12-07T05:21:33;8.70;74.40
10171;DHT22;5127;50.922;6.988;2022-12-07T05:24:01;8.60;74.30
10171;DHT22;5127;50.922;6.988;2022-12-07T05:26:30;8.70;74.30
10171;DHT22;5127;50.922;6.988;2022-12-07T05:28:57;8.70;74.30
10171;DHT22;5127;50.922;6.988;2022-12-07T05:31:25;8.70;74.30
10171;DHT22;5127;50.922;6.988;2022-12-07T05:33:53;8.70;74.30
10171;DHT22;5127;50.922;6.988;2022-12-07T05:36:20;8.70;74.20
10171;DHT22;5127;50.922;6.988;2022-12-07T05:38:48;8.70;74.30
10171;DHT22;5127;50.922;6.988;2022-12-07T05:41:17;8.70;74.30
10171;DHT22;5127;50.922;6.988;2022-12-07T05:44:04;8.70;74.10
10171;DHT22;5127;50.922;6.988;2022-12-07T05:46:32;8.60;74.00
10171;DHT22;5127;50.922;6.988;2022-12-07T05:48:59;8.70;74.10
10171;DHT22;5127;50.922;6.988;2022-12-07T05:51:26;8.60;74.00
10171;DHT22;5127;50.922;6.988;2022-12-07T05:53:54;8.60;74.10
10171;DHT22;5127;50.922;6.988;2022-12-07T05:56:21;8.60;74.10
10171;DHT22;5127;50.922;6.988;2022-12-07T05:58:49;8.60;74.10
10171;DHT22;5127;50.922;6.988;2022-12-07T06:01:35;8.60;74.10
10171;DHT22;5127;50.922;6.988;2022-12-07T06:04:02;8.60;73.90
10171;DHT22;5127;50.922;6.988;2022-12-07T06:06:29;8.50;73.70
10171;DHT22;5127;50.922;6.988;2022-12-07T06:08:57;8.50;73.50
10171;DHT22;5127;50.922;6.988;2022-12-07T06:11:24;8.50;73.40
10171;DHT22;5127;50.922;6.988;2022-12-07T06:14:09;8.40;73.40
10171;DHT22;5127;50.922;6.988;2022-12-07T06:16:37;8.40;73.40
10171;DHT22;5127;50.922;6.988;2022-12-07T06:19:04;8.30;73.20
10171;DHT22;5127;50.922;6.988;2022-12-07T06:21:31;8.30;73.20
10171;DHT22;5127;50.922;6.988;2022-12-07T06:23:59;8.30;73.10
10171;DHT22;5127;50.922;6.988;2022-12-07T06:26:26;8.20;73.00
10171;DHT22;5127;50.922;6.988;2022-12-07T06:28:53;8.10;73.00
10171;DHT22;5127;50.922;6.988;2022-12-07T06:31:20;8.10;73.00
10171;DHT22;5127;50.922;6.988;2022-12-07T06:33:49;8.00;73.00
10171;DHT22;5127;50.922;6.988;2022-12-07T06:36:17;8.00;73.10
10171;DHT22;5127;50.922;6.988;2022-12-07T06:38:44;7.90;73.20
10171;DHT22;5127;50.922;6.988;2022-12-07T06:41:11;7.90;73.20
10171;DHT22;5127;50.922;6.988;2022-12-07T06:43:38;7.90;73.30
10171;DHT22;5127;50.922;6.988;2022-12-07T06:46:05;7.90;73.50
10171;DHT22;5127;50.922;6.988;2022-12-07T06:48:33;7.90;73.60
10171;DHT22;5127;50.922;6.988;2022-12-07T06:51:02;7.80;73.70
10171;DHT22;5127;50.922;6.988;2022-12-07T06:53:29;7.80;73.80
10171;DHT22;5127;50.922;6.988;2022-12-07T06:55:56;7.80;73.90
10171;DHT22;5127;50.922;6.988;2022-12-07T06:58:23;7.80;74.10
10171;DHT22;5127;50.922;6.988;2022-12-07T07:00:51;7.90;74.20
10171;DHT22;5127;50.922;6.988;2022-12-07T07:03:18;7.90;74.60
10171;DHT22;5127;50.922;6.988;2022-12-07T07:05:45;7.90;74.40
10171;DHT22;5127;50.922;6.988;2022-12-07T07:08:14;7.90;74.50
10171;DHT22;5127;50.922;6.988;2022-12-07T07:10:41;7.90;74.50
10171;DHT22;5127;50.922;6.988;2022-12-07T07:13:09;7.90;74.50
10171;DHT22;5127;50.922;6.988;2022-12-07T07:15:37;8.00;74.50
10171;DHT22;5127;50.922;6.988;2022-12-07T07:18:05;8.00;74.50
10171;DHT22;5127;50.922;6.988;2022-12-07T07:20:32;8.00;74.50
10171;DHT22;5127;50.922;6.988;2022-12-07T07:22:59;8.00;74.50
10171;DHT22;5127;50.922;6.988;2022-12-07T07:25:28;8.00;74.40
10171;DHT22;5127;50.922;6.988;2022-12-07T07:27:55;8.00;74.40
10171;DHT22;5127;50.922;6.988;2022-12-07T07:30:23;8.00;74.40
10171;DHT22;5127;50.922;6.988;2022-12-07T07:32:50;8.00;74.40
10171;DHT22;5127;50.922;6.988;2022-12-07T07:35:17;8.10;74.50
10171;DHT22;5127;50.922;6.988;2022-12-07T07:37:45;8.10;74.40
10171;DHT22;5127;50.922;6.988;2022-12-07T07:40:12;8.10;74.30
10171;DHT22;5127;50.922;6.988;2022-12-07T07:42:40;8.10;74.30
10171;DHT22;5127;50.922;6.988;2022-12-07T07:45:09;8.10;74.10
10171;DHT22;5127;50.922;6.988;2022-12-07T07:47:36;8.10;74.20
10171;DHT22;5127;50.922;6.988;2022-12-07T07:50:04;8.10;74.30
10171;DHT22;5127;50.922;6.988;2022-12-07T07:52:32;8.10;74.40
10171;DHT22;5127;50.922;6.988;2022-12-07T07:54:59;8.20;74.60
10171;DHT22;5127;50.922;6.988;2022-12-07T07:57:26;8.20;74.80
10171;DHT22;5127;50.922;6.988;2022-12-07T07:59:55;8.20;74.80
10171;DHT22;5127;50.922;6.988;2022-12-07T08:02:22;8.30;74.90
10171;DHT22;5127;50.922;6.988;2022-12-07T08:04:50;8.30;75.00
10171;DHT22;5127;50.922;6.988;2022-12-07T08:07:17;8.40;75.10
10171;DHT22;5127;50.922;6.988;2022-12-07T08:09:44;8.40;75.00
10171;DHT22;5127;50.922;6.988;2022-12-07T08:12:12;8.50;75.00
10171;DHT22;5127;50.922;6.988;2022-12-07T08:14:39;8.50;75.00
10171;DHT22;5127;50.922;6.988;2022-12-07T08:17:08;8.60;75.00
10171;DHT22;5127;50.922;6.988;2022-12-07T08:19:35;8.60;74.90
10171;DHT22;5127;50.922;6.988;2022-12-07T08:22:03;8.60;74.90
10171;DHT22;5127;50.922;6.988;2022-12-07T08:24:32;8.70;75.00
10171;DHT22;5127;50.922;6.988;2022-12-07T08:27:00;8.70;74.90
10171;DHT22;5127;50.922;6.988;2022-12-07T08:29:27;8.70;74.90
10171;DHT22;5127;50.922;6.988;2022-12-07T08:31:54;8.80;74.90
10171;DHT22;5127;50.922;6.988;2022-12-07T08:34:22;8.80;74.70
10171;DHT22;5127;50.922;6.988;2022-12-07T08:36:50;8.80;74.50
10171;DHT22;5127;50.922;6.988;2022-12-07T08:39:17;8.80;74.50
10171;DHT22;5127;50.922;6.988;2022-12-07T08:41:44;8.80;74.50
10171;DHT22;5127;50.922;6.988;2022-12-07T08:44:11;8.80;74.50
10171;DHT22;5127;50.922;6.988;2022-12-07T08:46:41;8.80;74.50
10171;DHT22;5127;50.922;6.988;2022-12-07T08:49:13;8.90;74.50
10171;DHT22;5127;50.922;6.988;2022-12-07T08:51:42;8.90;74.60
10171;DHT22;5127;50.922;6.988;2022-12-07T08:54:11;8.90;74.70
10171;DHT22;5127;50.922;6.988;2022-12-07T08:56:40;8.90;74.60
10171;DHT22;5127;50.922;6.988;2022-12-07T08:59:08;8.90;74.80
10171;DHT22;5127;50.922;6.988;2022-12-07T09:01:35;8.90;74.90
10171;DHT22;5127;50.922;6.988;2022-12-07T09:04:03;8.90;74.90
10171;DHT22;5127;50.922;6.988;2022-12-07T09:06:30;9.00;75.00
10171;DHT22;5127;50.922;6.988;2022-12-07T09:09:00;9.00;75.00
10171;DHT22;5127;50.922;6.988;2022-12-07T09:11:28;9.00;74.70
10171;DHT22;5127;50.922;6.988;2022-12-07T09:13:56;9.10;74.90
10171;DHT22;5127;50.922;6.988;2022-12-07T09:16:23;9.10;74.90
10171;DHT22;5127;50.922;6.988;2022-12-07T09:18:50;9.10;74.90
10171;DHT22;5127;50.922;6.988;2022-12-07T09:21:17;9.20;75.10
10171;DHT22;5127;50.922;6.988;2022-12-07T09:23:44;9.20;75.00
10171;DHT22;5127;50.922;6.988;2022-12-07T09:26:13;9.20;75.00
10171;DHT22;5127;50.922;6.988;2022-12-07T09:28:40;9.20;74.80
10171;DHT22;5127;50.922;6.988;2022-12-07T09:31:07;9.30;74.90
10171;DHT22;5127;50.922;6.988;2022-12-07T09:33:35;9.30;74.90
10171;DHT22;5127;50.922;6.988;2022-12-07T09:36:03;9.30;74.90
10171;DHT22;5127;50.922;6.988;2022-12-07T09:38:31;9.40;74.80
10171;DHT22;5127;50.922;6.988;2022-12-07T09:41:04;9.40;74.90
10171;DHT22;5127;50.922;6.988;2022-12-07T09:43:35;9.40;74.50
10171;DHT22;5127;50.922;6.988;2022-12-07T09:46:03;9.40;74.60
10171;DHT22;5127;50.922;6.988;2022-12-07T09:48:33;9.50;74.80
10171;DHT22;5127;50.922;6.988;2022-12-07T09:51:10;9.50;75.30
10171;DHT22;5127;50.922;6.988;2022-12-07T09:53:41;9.50;74.50
10171;DHT22;5127;50.922;6.988;2022-12-07T09:56:11;9.50;74.60
10171;DHT22;5127;50.922;6.988;2022-12-07T09:58:41;9.50;74.40
10171;DHT22;5127;50.922;6.988;2022-12-07T10:01:11;9.60;74.50
10171;DHT22;5127;50.922;6.988;2022-12-07T10:03:42;9.60;74.60
10171;DHT22;5127;50.922;6.988;2022-12-07T10:06:12;9.60;74.60
10171;DHT22;5127;50.922;6.988;2022-12-07T10:08:40;9.60;74.70
10171;DHT22;5127;50.922;6.988;2022-12-07T10:11:09;9.70;74.90
10171;DHT22;5127;50.922;6.988;2022-12-07T10:13:41;9.70;75.00
10171;DHT22;5127;50.922;6.988;2022-12-07T10:16:29;9.80;75.10
10171;DHT22;5127;50.922;6.988;2022-12-07T10:19:18;9.80;74.10
10171;DHT22;5127;50.922;6.988;2022-12-07T10:22:00;9.90;73.90
10171;DHT22;5127;50.922;6.988;2022-12-07T10:24:28;9.90;74.00
10171;DHT22;5127;50.922;6.988;2022-12-07T10:26:56;10.00;73.70
10171;DHT22;5127;50.922;6.988;2022-12-07T10:29:29;10.00;73.50
10171;DHT22;5127;50.922;6.988;2022-12-07T10:31:58;10.00;73.00
10171;DHT22;5127;50.922;6.988;2022-12-07T10:34:27;10.00;73.20
10171;DHT22;5127;50.922;6.988;2022-12-07T10:37:14;10.00;73.20
10171;DHT22;5127;50.922;6.988;2022-12-07T10:39:43;10.00;72.50
10171;DHT22;5127;50.922;6.988;2022-12-07T10:42:17;10.00;73.20
10171;DHT22;5127;50.922;6.988;2022-12-07T10:44:47;10.10;72.80
10171;DHT22;5127;50.922;6.988;2022-12-07T10:47:24;10.10;73.20
10171;DHT22;5127;50.922;6.988;2022-12-07T10:50:12;10.10;72.90
10171;DHT22;5127;50.922;6.988;2022-12-07T10:55:40;10.10;72.80
10171;DHT22;5127;50.922;6.988;2022-12-07T10:58:23;10.10;72.80
10171;DHT22;5127;50.922;6.988;2022-12-07T11:01:02;10.20;72.70
10171;DHT22;5127;50.922;6.988;2022-12-07T11:03:50;10.20;72.50
10171;DHT22;5127;50.922;6.988;2022-12-07T11:06:27;10.20;72.10
10171;DHT22;5127;50.922;6.988;2022-12-07T11:09:04;10.20;72.50
10171;DHT22;5127;50.922;6.988;2022-12-07T11:11:40;10.30;72.70
10171;DHT22;5127;50.922;6.988;2022-12-07T11:14:19;10.30;72.80
10171;DHT22;5127;50.922;6.988;2022-12-07T11:16:56;10.30;72.50
10171;DHT22;5127;50.922;6.988;2022-12-07T11:19:46;10.30;72.30
10171;DHT22;5127;50.922;6.988;2022-12-07T11:22:22;10.30;71.90
10171;DHT22;5127;50.922;6.988;2022-12-07T11:24:56;10.30;72.70
10171;DHT22;5127;50.922;6.988;2022-12-07T11:27:33;10.30;72.50
10171;DHT22;5127;50.922;6.988;2022-12-07T11:30:11;10.30;72.40
10171;DHT22;5127;50.922;6.988;2022-12-07T11:35:36;10.30;72.40
10171;DHT22;5127;50.922;6.988;2022-12-07T11:38:11;10.40;72.20
10171;DHT22;5127;50.922;6.988;2022-12-07T11:40:40;10.40;72.00
10171;DHT22;5127;50.922;6.988;2022-12-07T11:43:18;10.40;72.20
10171;DHT22;5127;50.922;6.988;2022-12-07T11:45:51;10.30;71.80
10171;DHT22;5127;50.922;6.988;2022-12-07T11:48:24;10.30;72.00
10171;DHT22;5127;50.922;6.988;2022-12-07T11:50:57;10.30;71.80
10171;DHT22;5127;50.922;6.988;2022-12-07T11:53:29;10.30;72.00
10171;DHT22;5127;50.922;6.988;2022-12-07T11:56:03;10.30;71.90
10171;DHT22;5127;50.922;6.988;2022-12-07T11:58:42;10.20;71.70
10171;DHT22;5127;50.922;6.988;2022-12-07T12:01:24;10.20;71.40
10171;DHT22;5127;50.922;6.988;2022-12-07T12:03:58;10.20;71.20
10171;DHT22;5127;50.922;6.988;2022-12-07T12:06:27;10.10;71.40
10171;DHT22;5127;50.922;6.988;2022-12-07T12:08:59;10.10;71.80
10171;DHT22;5127;50.922;6.988;2022-12-07T12:11:40;10.00;71.40
10171;DHT22;5127;50.922;6.988;2022-12-07T12:17:15;9.90;72.30
10171;DHT22;5127;50.922;6.988;2022-12-07T12:19:59;9.90;72.50
10171;DHT22;5127;50.922;6.988;2022-12-07T12:22:33;9.90;72.30
10171;DHT22;5127;50.922;6.988;2022-12-07T12:25:04;9.90;72.70
10171;DHT22;5127;50.922;6.988;2022-12-07T12:27:35;9.90;73.00
10171;DHT22;5127;50.922;6.988;2022-12-07T12:30:06;9.90;73.70
10171;DHT22;5127;50.922;6.988;2022-12-07T12:32:39;9.90;72.90
10171;DHT22;5127;50.922;6.988;2022-12-07T12:35:30;9.80;72.50
10171;DHT22;5127;50.922;6.988;2022-12-07T12:38:25;9.80;71.70
10171;DHT22;5127;50.922;6.988;2022-12-07T12:40:53;9.80;71.80
10171;DHT22;5127;50.922;6.988;2022-12-07T12:43:43;9.80;72.90
10171;DHT22;5127;50.922;6.988;2022-12-07T12:46:37;9.80;72.00
10171;DHT22;5127;50.922;6.988;2022-12-07T12:49:37;9.80;72.10
10171;DHT22;5127;50.922;6.988;2022-12-07T12:55:20;9.90;72.50
10171;DHT22;5127;50.922;6.988;2022-12-07T13:01:33;9.90;72.40
10171;DHT22;5127;50.922;6.988;2022-12-07T13:04:17;9.90;72.20
10171;DHT22;5127;50.922;6.988;2022-12-07T13:06:46;9.90;72.40
10171;DHT22;5127;50.922;6.988;2022-12-07T13:09:20;10.00;72.10
10171;DHT22;5127;50.922;6.988;2022-12-07T13:11:58;10.00;71.70
10171;DHT22;5127;50.922;6.988;2022-12-07T13:14:43;10.00;71.50
10171;DHT22;5127;50.922;6.988;2022-12-07T13:20:42;10.00;71.10
10171;DHT22;5127;50.922;6.988;2022-12-07T13:23:10;10.10;71.10
10171;DHT22;5127;50.922;6.988;2022-12-07T13:25:46;10.00;71.60
10171;DHT22;5127;50.922;6.988;2022-12-07T13:28:18;10.00;71.00
10171;DHT22;5127;50.922;6.988;2022-12-07T13:30:54;10.00;71.20
10171;DHT22;5127;50.922;6.988;2022-12-07T13:33:27;10.00;71.00
10171;DHT22;5127;50.922;6.988;2022-12-07T13:35:56;10.00;71.10
10171;DHT22;5127;50.922;6.988;2022-12-07T13:38:28;9.90;72.40
10171;DHT22;5127;50.922;6.988;2022-12-07T13:41:04;9.90;72.40
10171;DHT22;5127;50.922;6.988;2022-12-07T13:43:43;9.90;72.20
10171;DHT22;5127;50.922;6.988;2022-12-07T13:46:11;9.90;71.90
10171;DHT22;5127;50.922;6.988;2022-12-07T13:48:45;10.00;71.70
10171;DHT22;5127;50.922;6.988;2022-12-07T13:51:21;9.90;72.70
10171;DHT22;5127;50.922;6.988;2022-12-07T13:53:51;10.00;71.10
10171;DHT22;5127;50.922;6.988;2022-12-07T13:56:18;10.00;71.70
10171;DHT22;5127;50.922;6.988;2022-12-07T13:58:49;10.00;71.80
10171;DHT22;5127;50.922;6.988;2022-12-07T14:01:16;10.00;71.70
10171;DHT22;5127;50.922;6.988;2022-12-07T14:03:44;10.00;71.70
10171;DHT22;5127;50.922;6.988;2022-12-07T14:06:16;10.10;71.70
10171;DHT22;5127;50.922;6.988;2022-12-07T14:08:44;10.10;71.20
10171;DHT22;5127;50.922;6.988;2022-12-07T14:11:16;10.10;71.60
10171;DHT22;5127;50.922;6.988;2022-12-07T14:13:56;10.10;71.00
10171;DHT22;5127;50.922;6.988;2022-12-07T14:16:27;10.10;70.40
10171;DHT22;5127;50.922;6.988;2022-12-07T14:18:56;10.10;71.20
10171;DHT22;5127;50.922;6.988;2022-12-07T14:21:25;10.00;71.20
10171;DHT22;5127;50.922;6.988;2022-12-07T14:24:15;10.00;71.10
10171;DHT22;5127;50.922;6.988;2022-12-07T14:26:43;10.00;70.30
10171;DHT22;5127;50.922;6.988;2022-12-07T14:29:33;10.00;71.10
10171;DHT22;5127;50.922;6.988;2022-12-07T14:32:18;10.00;69.90
10171;DHT22;5127;50.922;6.988;2022-12-07T14:34:56;10.00;70.00
10171;DHT22;5127;50.922;6.988;2022-12-07T14:37:24;10.00;70.30
10171;DHT22;5127;50.922;6.988;2022-12-07T14:39:51;10.00;71.00
10171;DHT22;5127;50.922;6.988;2022-12-07T14:42:18;9.90;72.00
10171;DHT22;5127;50.922;6.988;2022-12-07T14:44:48;9.90;71.90
10171;DHT22;5127;50.922;6.988;2022-12-07T14:47:15;9.90;71.80
10171;DHT22;5127;50.922;6.988;2022-12-07T14:49:42;9.90;72.00
10171;DHT22;5127;50.922;6.988;2022-12-07T14:52:14;9.90;72.00
10171;DHT22;5127;50.922;6.988;2022-12-07T14:54:42;9.80;71.60
10171;DHT22;5127;50.922;6.988;2022-12-07T14:57:10;9.80;71.90
10171;DHT22;5127;50.922;6.988;2022-12-07T14:59:38;9.80;71.90
10171;DHT22;5127;50.922;6.988;2022-12-07T15:02:09;9.80;71.90
10171;DHT22;5127;50.922;6.988;2022-12-07T15:04:37;9.80;71.80
10171;DHT22;5127;50.922;6.988;2022-12-07T15:07:06;9.80;72.00
10171;DHT22;5127;50.922;6.988;2022-12-07T15:09:36;9.80;71.90
10171;DHT22;5127;50.922;6.988;2022-12-07T15:12:03;9.80;72.00
10171;DHT22;5127;50.922;6.988;2022-12-07T15:14:30;9.80;72.00
10171;DHT22;5127;50.922;6.988;2022-12-07T15:16:58;9.70;72.00
10171;DHT22;5127;50.922;6.988;2022-12-07T15:19:26;9.80;72.10
10171;DHT22;5127;50.922;6.988;2022-12-07T15:21:53;9.80;72.10
10171;DHT22;5127;50.922;6.988;2022-12-07T15:24:21;9.80;72.20
10171;DHT22;5127;50.922;6.988;2022-12-07T15:26:49;9.80;72.20
10171;DHT22;5127;50.922;6.988;2022-12-07T15:29:17;9.80;72.20
10171;DHT22;5127;50.922;6.988;2022-12-07T15:31:44;9.70;72.00
10171;DHT22;5127;50.922;6.988;2022-12-07T15:34:12;9.70;72.10
10171;DHT22;5127;50.922;6.988;2022-12-07T15:36:40;9.70;72.00
10171;DHT22;5127;50.922;6.988;2022-12-07T15:39:08;9.70;71.70
10171;DHT22;5127;50.922;6.988;2022-12-07T15:41:35;9.60;71.50
10171;DHT22;5127;50.922;6.988;2022-12-07T15:44:02;9.60;71.40
10171;DHT22;5127;50.922;6.988;2022-12-07T15:46:47;9.50;71.30
10171;DHT22;5127;50.922;6.988;2022-12-07T15:49:16;9.40;71.40
10171;DHT22;5127;50.922;6.988;2022-12-07T15:51:45;9.40;71.30
10171;DHT22;5127;50.922;6.988;2022-12-07T15:54:17;9.30;71.40
10171;DHT22;5127;50.922;6.988;2022-12-07T15:56:45;9.30;71.40
10171;DHT22;5127;50.922;6.988;2022-12-07T15:59:12;9.20;71.60
10171;DHT22;5127;50.922;6.988;2022-12-07T16:01:40;9.20;71.70
10171;DHT22;5127;50.922;6.988;2022-12-07T16:04:07;9.20;71.90
10171;DHT22;5127;50.922;6.988;2022-12-07T16:06:34;9.10;71.80
10171;DHT22;5127;50.922;6.988;2022-12-07T16:09:03;9.10;71.70
10171;DHT22;5127;50.922;6.988;2022-12-07T16:11:31;9.10;71.70
10171;DHT22;5127;50.922;6.988;2022-12-07T16:13:58;9.00;71.70
10171;DHT22;5127;50.922;6.988;2022-12-07T16:16:26;9.00;71.60
10171;DHT22;5127;50.922;6.988;2022-12-07T16:18:53;9.00;71.60
10171;DHT22;5127;50.922;6.988;2022-12-07T16:21:21;8.90;71.40
10171;DHT22;5127;50.922;6.988;2022-12-07T16:23:48;8.90;71.40
10171;DHT22;5127;50.922;6.988;2022-12-07T16:26:18;8.80;71.40
10171;DHT22;5127;50.922;6.988;2022-12-07T16:28:48;8.70;71.40
10171;DHT22;5127;50.922;6.988;2022-12-07T16:31:17;8.70;71.50
10171;DHT22;5127;50.922;6.988;2022-12-07T16:33:45;8.60;71.60
10171;DHT22;5127;50.922;6.988;2022-12-07T16:36:13;8.60;71.80
10171;DHT22;5127;50.922;6.988;2022-12-07T16:38:42;8.60;71.80
10171;DHT22;5127;50.922;6.988;2022-12-07T16:41:11;8.60;72.00